sensor_id;sensor_type;location;lat;lon;timestamp;P1;durP1;ratioP1;P2;durP2;ratioP2
41059;SDS011;26811;53.160;8.202;2023-04-03T00:04:57;6.85;;;3.50;;
41059;SDS011;26811;53.160;8.202;2023-04-03T00:09:57;6.78;;;3.40;;
41059;SDS011;26811;53.160;8.202;2023-04-03T00:14:58;3.63;;;3.25;;
41059;SDS011;26811;53.160;8.202;2023-04-03T00:19:58;5.10;;;3.03;;
41059;SDS011;26811;53.160;8.202;2023-04-03T00:24:59;8.35;;;3.22;;
41059;SDS011;26811;53.160;8.202;2023-04-03T00:29:59;7.38;;;3.38;;
41059;SDS011;26811;53.160;8.202;2023-04-03T00:35:00;5.07;;;3.20;;
41059;SDS011;26811;53.160;8.202;2023-04-03T00:40:01;7.45;;;3.55;;
41059;SDS011;26811;53.160;8.202;2023-04-03T00:50:02;4.63;;;3.13;;
41059;SDS011;26811;53.160;8.202;2023-04-03T00:55:05;4.15;;;3.20;;
41059;SDS011;26811;53.160;8.202;2023-04-03T01:05:10;5.72;;;3.50;;
41059;SDS011;26811;53.160;8.202;2023-04-03T01:10:12;6.20;;;3.63;;
41059;SDS011;26811;53.160;8.202;2023-04-03T01:15:17;7.65;;;3.38;;
41059;SDS011;26811;53.160;8.202;2023-04-03T01:25:33;6.80;;;3.77;;
41059;SDS011;26811;53.160;8.202;2023-04-03T01:35:54;6.13;;;3.85;;
41059;SDS011;26811;53.160;8.202;2023-04-03T01:40:55;9.20;;;4.03;;
41059;SDS011;26811;53.160;8.202;2023-04-03T01:45:55;8.48;;;4.07;;
41059;SDS011;26811;53.160;8.202;2023-04-03T01:50:56;6.20;;;4.28;;
41059;SDS011;26811;53.160;8.202;2023-04-03T01:55:57;8.05;;;3.80;;
41059;SDS011;26811;53.160;8.202;2023-04-03T02:00:57;7.45;;;4.25;;
41059;SDS011;26811;53.160;8.202;2023-04-03T02:05:58;10.75;;;4.13;;
41059;SDS011;26811;53.160;8.202;2023-04-03T02:10:59;5.18;;;3.85;;
41059;SDS011;26811;53.160;8.202;2023-04-03T02:16:05;9.13;;;4.30;;
41059;SDS011;26811;53.160;8.202;2023-04-03T02:21:07;16.08;;;4.50;;
41059;SDS011;26811;53.160;8.202;2023-04-03T02:26:09;6.78;;;3.85;;
41059;SDS011;26811;53.160;8.202;2023-04-03T02:31:11;5.72;;;4.22;;
41059;SDS011;26811;53.160;8.202;2023-04-03T02:36:11;9.00;;;4.38;;
41059;SDS011;26811;53.160;8.202;2023-04-03T02:41:12;10.45;;;4.63;;
41059;SDS011;26811;53.160;8.202;2023-04-03T02:46:12;7.25;;;4.50;;
41059;SDS011;26811;53.160;8.202;2023-04-03T02:51:15;7.30;;;4.03;;
41059;SDS011;26811;53.160;8.202;2023-04-03T02:56:16;7.00;;;4.45;;
41059;SDS011;26811;53.160;8.202;2023-04-03T03:01:18;12.07;;;4.32;;
41059;SDS011;26811;53.160;8.202;2023-04-03T03:06:18;5.32;;;3.97;;
41059;SDS011;26811;53.160;8.202;2023-04-03T03:11:19;7.75;;;4.35;;
41059;SDS011;26811;53.160;8.202;2023-04-03T03:16:19;6.13;;;4.45;;
41059;SDS011;26811;53.160;8.202;2023-04-03T03:21:20;8.63;;;4.15;;
41059;SDS011;26811;53.160;8.202;2023-04-03T03:26:21;9.98;;;4.28;;
41059;SDS011;26811;53.160;8.202;2023-04-03T03:31:21;10.80;;;5.00;;
41059;SDS011;26811;53.160;8.202;2023-04-03T03:36:22;6.78;;;4.65;;
41059;SDS011;26811;53.160;8.202;2023-04-03T03:41:22;9.80;;;4.78;;
41059;SDS011;26811;53.160;8.202;2023-04-03T03:46:23;9.32;;;4.57;;
41059;SDS011;26811;53.160;8.202;2023-04-03T03:51:23;9.82;;;4.82;;
41059;SDS011;26811;53.160;8.202;2023-04-03T03:56:24;8.48;;;4.68;;
41059;SDS011;26811;53.160;8.202;2023-04-03T04:01:25;11.73;;;4.63;;
41059;SDS011;26811;53.160;8.202;2023-04-03T04:06:26;5.30;;;4.35;;
41059;SDS011;26811;53.160;8.202;2023-04-03T04:11:26;11.00;;;4.65;;
41059;SDS011;26811;53.160;8.202;2023-04-03T04:16:27;15.90;;;4.22;;
41059;SDS011;26811;53.160;8.202;2023-04-03T04:21:28;5.93;;;4.50;;
41059;SDS011;26811;53.160;8.202;2023-04-03T04:26:28;13.70;;;4.75;;
41059;SDS011;26811;53.160;8.202;2023-04-03T04:31:29;9.45;;;5.07;;
41059;SDS011;26811;53.160;8.202;2023-04-03T04:36:29;7.57;;;4.85;;
41059;SDS011;26811;53.160;8.202;2023-04-03T04:41:30;7.85;;;4.97;;
41059;SDS011;26811;53.160;8.202;2023-04-03T04:46:31;6.70;;;5.25;;
41059;SDS011;26811;53.160;8.202;2023-04-03T04:51:32;9.85;;;5.10;;
41059;SDS011;26811;53.160;8.202;2023-04-03T04:56:32;9.18;;;5.13;;
41059;SDS011;26811;53.160;8.202;2023-04-03T05:01:33;9.30;;;4.85;;
41059;SDS011;26811;53.160;8.202;2023-04-03T05:06:33;6.78;;;4.78;;
41059;SDS011;26811;53.160;8.202;2023-04-03T05:11:35;11.20;;;5.22;;
41059;SDS011;26811;53.160;8.202;2023-04-03T05:16:35;7.22;;;5.13;;
41059;SDS011;26811;53.160;8.202;2023-04-03T05:21:36;8.75;;;5.35;;
41059;SDS011;26811;53.160;8.202;2023-04-03T05:26:37;13.27;;;5.68;;
41059;SDS011;26811;53.160;8.202;2023-04-03T05:31:38;12.57;;;5.75;;
41059;SDS011;26811;53.160;8.202;2023-04-03T05:36:38;8.25;;;5.05;;
41059;SDS011;26811;53.160;8.202;2023-04-03T05:41:39;11.50;;;5.10;;
41059;SDS011;26811;53.160;8.202;2023-04-03T05:46:40;10.35;;;5.40;;
41059;SDS011;26811;53.160;8.202;2023-04-03T05:51:41;9.63;;;5.50;;
41059;SDS011;26811;53.160;8.202;2023-04-03T05:56:42;11.50;;;5.85;;
41059;SDS011;26811;53.160;8.202;2023-04-03T06:01:42;8.80;;;5.25;;
41059;SDS011;26811;53.160;8.202;2023-04-03T06:06:50;10.38;;;5.50;;
41059;SDS011;26811;53.160;8.202;2023-04-03T06:11:53;9.45;;;5.65;;
41059;SDS011;26811;53.160;8.202;2023-04-03T06:16:54;12.20;;;5.45;;
41059;SDS011;26811;53.160;8.202;2023-04-03T06:21:55;11.32;;;5.30;;
41059;SDS011;26811;53.160;8.202;2023-04-03T06:26:56;10.73;;;5.85;;
41059;SDS011;26811;53.160;8.202;2023-04-03T06:31:57;14.48;;;6.35;;
41059;SDS011;26811;53.160;8.202;2023-04-03T06:36:58;7.50;;;5.10;;
41059;SDS011;26811;53.160;8.202;2023-04-03T06:41:59;5.97;;;4.63;;
41059;SDS011;26811;53.160;8.202;2023-04-03T06:47:00;7.20;;;4.03;;
41059;SDS011;26811;53.160;8.202;2023-04-03T06:52:01;6.53;;;3.50;;
41059;SDS011;26811;53.160;8.202;2023-04-03T06:57:02;10.45;;;3.70;;
41059;SDS011;26811;53.160;8.202;2023-04-03T07:02:02;7.65;;;3.35;;
41059;SDS011;26811;53.160;8.202;2023-04-03T07:07:03;7.55;;;3.53;;
41059;SDS011;26811;53.160;8.202;2023-04-03T07:12:05;8.27;;;3.20;;
41059;SDS011;26811;53.160;8.202;2023-04-03T07:17:06;5.40;;;2.90;;
41059;SDS011;26811;53.160;8.202;2023-04-03T07:22:06;8.65;;;3.33;;
41059;SDS011;26811;53.160;8.202;2023-04-03T07:27:07;10.30;;;2.80;;
41059;SDS011;26811;53.160;8.202;2023-04-03T07:32:08;8.73;;;3.10;;
41059;SDS011;26811;53.160;8.202;2023-04-03T07:37:09;8.05;;;3.20;;
41059;SDS011;26811;53.160;8.202;2023-04-03T07:42:10;4.82;;;2.90;;
41059;SDS011;26811;53.160;8.202;2023-04-03T07:47:12;6.33;;;3.00;;
41059;SDS011;26811;53.160;8.202;2023-04-03T07:52:14;7.28;;;2.88;;
41059;SDS011;26811;53.160;8.202;2023-04-03T07:57:15;7.50;;;2.78;;
41059;SDS011;26811;53.160;8.202;2023-04-03T08:02:16;7.40;;;3.08;;
41059;SDS011;26811;53.160;8.202;2023-04-03T08:07:16;8.40;;;3.40;;
41059;SDS011;26811;53.160;8.202;2023-04-03T08:12:17;5.55;;;3.28;;
41059;SDS011;26811;53.160;8.202;2023-04-03T08:17:18;5.97;;;2.63;;
41059;SDS011;26811;53.160;8.202;2023-04-03T08:22:18;6.38;;;2.60;;
41059;SDS011;26811;53.160;8.202;2023-04-03T08:27:19;6.05;;;2.53;;
41059;SDS011;26811;53.160;8.202;2023-04-03T08:32:20;4.18;;;2.47;;
41059;SDS011;26811;53.160;8.202;2023-04-03T08:37:20;6.30;;;2.60;;
41059;SDS011;26811;53.160;8.202;2023-04-03T08:42:40;7.97;;;2.80;;
41059;SDS011;26811;53.160;8.202;2023-04-03T08:48:07;7.45;;;3.00;;
41059;SDS011;26811;53.160;8.202;2023-04-03T08:53:16;5.55;;;2.58;;
41059;SDS011;26811;53.160;8.202;2023-04-03T08:58:27;5.13;;;2.10;;
41059;SDS011;26811;53.160;8.202;2023-04-03T09:03:30;6.63;;;1.90;;
41059;SDS011;26811;53.160;8.202;2023-04-03T09:08:36;4.72;;;2.20;;
41059;SDS011;26811;53.160;8.202;2023-04-03T09:24:30;3.28;;;1.90;;
41059;SDS011;26811;53.160;8.202;2023-04-03T09:29:32;4.80;;;2.38;;
41059;SDS011;26811;53.160;8.202;2023-04-03T09:34:37;6.50;;;2.65;;
41059;SDS011;26811;53.160;8.202;2023-04-03T09:39:51;3.50;;;2.00;;
41059;SDS011;26811;53.160;8.202;2023-04-03T09:44:58;3.83;;;1.85;;
41059;SDS011;26811;53.160;8.202;2023-04-03T10:00:21;2.78;;;1.73;;
41059;SDS011;26811;53.160;8.202;2023-04-03T10:05:32;2.15;;;1.67;;
41059;SDS011;26811;53.160;8.202;2023-04-03T10:10:35;4.32;;;2.00;;
41059;SDS011;26811;53.160;8.202;2023-04-03T10:15:42;3.50;;;1.67;;
41059;SDS011;26811;53.160;8.202;2023-04-03T10:20:47;5.00;;;1.92;;
41059;SDS011;26811;53.160;8.202;2023-04-03T10:25:54;5.15;;;1.83;;
41059;SDS011;26811;53.160;8.202;2023-04-03T10:31:06;3.42;;;1.65;;
41059;SDS011;26811;53.160;8.202;2023-04-03T10:42:04;2.47;;;1.50;;
41059;SDS011;26811;53.160;8.202;2023-04-03T10:57:43;3.03;;;1.75;;
41059;SDS011;26811;53.160;8.202;2023-04-03T11:02:48;1.70;;;1.58;;
41059;SDS011;26811;53.160;8.202;2023-04-03T11:07:52;3.35;;;1.60;;
41059;SDS011;26811;53.160;8.202;2023-04-03T11:18:18;3.05;;;1.60;;
41059;SDS011;26811;53.160;8.202;2023-04-03T11:23:25;4.15;;;1.52;;
41059;SDS011;26811;53.160;8.202;2023-04-03T11:28:27;6.03;;;1.50;;
41059;SDS011;26811;53.160;8.202;2023-04-03T11:33:40;2.03;;;1.50;;
41059;SDS011;26811;53.160;8.202;2023-04-03T11:38:57;2.38;;;1.80;;
41059;SDS011;26811;53.160;8.202;2023-04-03T11:44:04;1.60;;;1.23;;
41059;SDS011;26811;53.160;8.202;2023-04-03T11:55:02;1.95;;;1.45;;
41059;SDS011;26811;53.160;8.202;2023-04-03T12:05:52;3.53;;;1.70;;
41059;SDS011;26811;53.160;8.202;2023-04-03T12:32:03;1.48;;;1.20;;
41059;SDS011;26811;53.160;8.202;2023-04-03T12:53:50;4.78;;;1.33;;
41059;SDS011;26811;53.160;8.202;2023-04-03T12:59:13;2.13;;;1.60;;
41059;SDS011;26811;53.160;8.202;2023-04-03T13:04:13;3.72;;;1.50;;
41059;SDS011;26811;53.160;8.202;2023-04-03T13:09:22;2.80;;;1.55;;
41059;SDS011;26811;53.160;8.202;2023-04-03T13:14:26;3.70;;;1.67;;
41059;SDS011;26811;53.160;8.202;2023-04-03T13:19:28;2.88;;;1.52;;
41059;SDS011;26811;53.160;8.202;2023-04-03T13:24:30;3.45;;;1.50;;
41059;SDS011;26811;53.160;8.202;2023-04-03T13:29:35;3.90;;;1.58;;
41059;SDS011;26811;53.160;8.202;2023-04-03T13:34:41;2.65;;;1.30;;
41059;SDS011;26811;53.160;8.202;2023-04-03T13:39:42;2.73;;;1.70;;
41059;SDS011;26811;53.160;8.202;2023-04-03T13:44:43;5.38;;;1.65;;
41059;SDS011;26811;53.160;8.202;2023-04-03T13:49:45;1.63;;;1.50;;
41059;SDS011;26811;53.160;8.202;2023-04-03T13:55:00;1.70;;;1.40;;
41059;SDS011;26811;53.160;8.202;2023-04-03T14:01:17;2.75;;;1.50;;
41059;SDS011;26811;53.160;8.202;2023-04-03T14:05:50;3.28;;;1.50;;
41059;SDS011;26811;53.160;8.202;2023-04-03T14:10:51;4.13;;;1.90;;
41059;SDS011;26811;53.160;8.202;2023-04-03T14:15:51;4.22;;;1.70;;
41059;SDS011;26811;53.160;8.202;2023-04-03T14:20:52;2.35;;;1.65;;
41059;SDS011;26811;53.160;8.202;2023-04-03T14:25:52;3.75;;;1.80;;
41059;SDS011;26811;53.160;8.202;2023-04-03T14:30:54;3.08;;;2.10;;
41059;SDS011;26811;53.160;8.202;2023-04-03T14:35:55;3.60;;;2.00;;
41059;SDS011;26811;53.160;8.202;2023-04-03T14:40:56;3.85;;;1.90;;
41059;SDS011;26811;53.160;8.202;2023-04-03T14:45:57;3.90;;;1.73;;
41059;SDS011;26811;53.160;8.202;2023-04-03T14:50:58;4.97;;;2.10;;
41059;SDS011;26811;53.160;8.202;2023-04-03T14:55:58;3.63;;;2.10;;
41059;SDS011;26811;53.160;8.202;2023-04-03T15:00:59;4.72;;;1.92;;
41059;SDS011;26811;53.160;8.202;2023-04-03T15:05:59;3.58;;;1.67;;
41059;SDS011;26811;53.160;8.202;2023-04-03T15:11:00;4.90;;;1.75;;
41059;SDS011;26811;53.160;8.202;2023-04-03T15:16:01;3.83;;;1.88;;
41059;SDS011;26811;53.160;8.202;2023-04-03T15:21:04;1.75;;;1.55;;
41059;SDS011;26811;53.160;8.202;2023-04-03T15:26:05;4.60;;;1.80;;
41059;SDS011;26811;53.160;8.202;2023-04-03T15:31:06;2.08;;;1.60;;
41059;SDS011;26811;53.160;8.202;2023-04-03T15:36:06;2.38;;;1.80;;
41059;SDS011;26811;53.160;8.202;2023-04-03T15:41:07;4.72;;;2.22;;
41059;SDS011;26811;53.160;8.202;2023-04-03T15:46:08;3.80;;;1.80;;
41059;SDS011;26811;53.160;8.202;2023-04-03T15:51:08;4.65;;;1.88;;
41059;SDS011;26811;53.160;8.202;2023-04-03T15:56:09;5.32;;;2.05;;
41059;SDS011;26811;53.160;8.202;2023-04-03T16:01:11;5.00;;;1.90;;
41059;SDS011;26811;53.160;8.202;2023-04-03T16:06:15;8.52;;;1.92;;
41059;SDS011;26811;53.160;8.202;2023-04-03T16:11:18;3.45;;;2.30;;
41059;SDS011;26811;53.160;8.202;2023-04-03T16:16:19;3.95;;;1.90;;
41059;SDS011;26811;53.160;8.202;2023-04-03T16:21:20;6.45;;;2.30;;
41059;SDS011;26811;53.160;8.202;2023-04-03T16:26:20;5.00;;;2.40;;
41059;SDS011;26811;53.160;8.202;2023-04-03T16:31:21;4.82;;;2.50;;
41059;SDS011;26811;53.160;8.202;2023-04-03T16:36:24;6.00;;;2.90;;
41059;SDS011;26811;53.160;8.202;2023-04-03T16:41:25;7.20;;;2.85;;
41059;SDS011;26811;53.160;8.202;2023-04-03T16:46:26;3.85;;;2.58;;
41059;SDS011;26811;53.160;8.202;2023-04-03T16:51:27;5.38;;;3.08;;
41059;SDS011;26811;53.160;8.202;2023-04-03T16:56:27;7.78;;;3.30;;
41059;SDS011;26811;53.160;8.202;2023-04-03T17:01:28;6.28;;;3.20;;
41059;SDS011;26811;53.160;8.202;2023-04-03T17:06:28;4.13;;;3.08;;
41059;SDS011;26811;53.160;8.202;2023-04-03T17:11:29;6.22;;;2.80;;
41059;SDS011;26811;53.160;8.202;2023-04-03T17:16:34;5.57;;;3.20;;
41059;SDS011;26811;53.160;8.202;2023-04-03T17:21:36;8.25;;;3.38;;
41059;SDS011;26811;53.160;8.202;2023-04-03T17:26:37;6.45;;;3.50;;
41059;SDS011;26811;53.160;8.202;2023-04-03T17:31:39;3.97;;;3.47;;
41059;SDS011;26811;53.160;8.202;2023-04-03T17:36:40;6.43;;;3.80;;
41059;SDS011;26811;53.160;8.202;2023-04-03T17:41:40;5.90;;;3.17;;
41059;SDS011;26811;53.160;8.202;2023-04-03T17:46:41;8.60;;;4.05;;
41059;SDS011;26811;53.160;8.202;2023-04-03T17:51:42;6.43;;;3.90;;
41059;SDS011;26811;53.160;8.202;2023-04-03T17:56:42;7.57;;;3.70;;
41059;SDS011;26811;53.160;8.202;2023-04-03T18:01:47;5.60;;;3.35;;
41059;SDS011;26811;53.160;8.202;2023-04-03T18:06:48;6.78;;;4.10;;
41059;SDS011;26811;53.160;8.202;2023-04-03T18:11:50;6.85;;;3.40;;
41059;SDS011;26811;53.160;8.202;2023-04-03T18:16:52;6.00;;;3.72;;
41059;SDS011;26811;53.160;8.202;2023-04-03T18:21:57;7.15;;;3.40;;
41059;SDS011;26811;53.160;8.202;2023-04-03T18:27:02;7.07;;;3.60;;
41059;SDS011;26811;53.160;8.202;2023-04-03T18:32:11;10.00;;;3.88;;
41059;SDS011;26811;53.160;8.202;2023-04-03T18:37:14;8.65;;;4.20;;
41059;SDS011;26811;53.160;8.202;2023-04-03T18:42:16;5.63;;;3.63;;
41059;SDS011;26811;53.160;8.202;2023-04-03T18:47:19;6.55;;;4.20;;
41059;SDS011;26811;53.160;8.202;2023-04-03T18:52:19;5.47;;;3.53;;
41059;SDS011;26811;53.160;8.202;2023-04-03T18:57:20;6.10;;;3.72;;
41059;SDS011;26811;53.160;8.202;2023-04-03T19:02:21;10.55;;;4.18;;
41059;SDS011;26811;53.160;8.202;2023-04-03T19:07:24;6.78;;;3.65;;
41059;SDS011;26811;53.160;8.202;2023-04-03T19:12:25;7.60;;;4.47;;
41059;SDS011;26811;53.160;8.202;2023-04-03T19:17:26;8.02;;;3.42;;
41059;SDS011;26811;53.160;8.202;2023-04-03T19:22:27;8.00;;;3.90;;
41059;SDS011;26811;53.160;8.202;2023-04-03T19:27:29;9.10;;;4.20;;
41059;SDS011;26811;53.160;8.202;2023-04-03T19:32:30;5.25;;;3.70;;
41059;SDS011;26811;53.160;8.202;2023-04-03T19:37:30;8.15;;;4.53;;
41059;SDS011;26811;53.160;8.202;2023-04-03T19:42:31;9.20;;;4.18;;
41059;SDS011;26811;53.160;8.202;2023-04-03T19:47:32;7.15;;;3.70;;
41059;SDS011;26811;53.160;8.202;2023-04-03T19:52:34;11.67;;;4.37;;
41059;SDS011;26811;53.160;8.202;2023-04-03T19:57:34;8.10;;;4.85;;
41059;SDS011;26811;53.160;8.202;2023-04-03T20:02:35;7.13;;;4.13;;
41059;SDS011;26811;53.160;8.202;2023-04-03T20:07:36;10.85;;;4.82;;
41059;SDS011;26811;53.160;8.202;2023-04-03T20:12:36;9.82;;;5.05;;
41059;SDS011;26811;53.160;8.202;2023-04-03T20:17:38;8.40;;;4.30;;
41059;SDS011;26811;53.160;8.202;2023-04-03T20:22:39;11.38;;;4.57;;
41059;SDS011;26811;53.160;8.202;2023-04-03T20:27:39;11.27;;;4.97;;
41059;SDS011;26811;53.160;8.202;2023-04-03T20:32:40;6.53;;;4.90;;
41059;SDS011;26811;53.160;8.202;2023-04-03T20:37:41;6.22;;;4.40;;
41059;SDS011;26811;53.160;8.202;2023-04-03T20:42:41;8.38;;;5.35;;
41059;SDS011;26811;53.160;8.202;2023-04-03T20:47:42;9.80;;;4.13;;
41059;SDS011;26811;53.160;8.202;2023-04-03T20:52:43;7.50;;;4.95;;
41059;SDS011;26811;53.160;8.202;2023-04-03T20:57:43;7.07;;;4.10;;
41059;SDS011;26811;53.160;8.202;2023-04-03T21:02:45;6.55;;;4.25;;
41059;SDS011;26811;53.160;8.202;2023-04-03T21:24:19;8.35;;;4.53;;
41059;SDS011;26811;53.160;8.202;2023-04-03T21:29:21;5.20;;;3.95;;
41059;SDS011;26811;53.160;8.202;2023-04-03T21:34:21;8.35;;;3.95;;
41059;SDS011;26811;53.160;8.202;2023-04-03T21:39:29;9.73;;;4.15;;
41059;SDS011;26811;53.160;8.202;2023-04-03T21:44:30;9.13;;;4.32;;
41059;SDS011;26811;53.160;8.202;2023-04-03T21:49:31;6.22;;;3.97;;
41059;SDS011;26811;53.160;8.202;2023-04-03T21:54:31;7.47;;;3.38;;
41059;SDS011;26811;53.160;8.202;2023-04-03T21:59:32;9.55;;;3.78;;
41059;SDS011;26811;53.160;8.202;2023-04-03T22:04:33;9.10;;;3.80;;
41059;SDS011;26811;53.160;8.202;2023-04-03T22:09:34;12.35;;;3.80;;
41059;SDS011;26811;53.160;8.202;2023-04-03T22:14:34;6.47;;;3.20;;
41059;SDS011;26811;53.160;8.202;2023-04-03T22:19:35;8.60;;;3.60;;
41059;SDS011;26811;53.160;8.202;2023-04-03T22:24:36;7.05;;;3.72;;
41059;SDS011;26811;53.160;8.202;2023-04-03T22:29:36;8.50;;;3.40;;
41059;SDS011;26811;53.160;8.202;2023-04-03T22:34:37;4.28;;;3.75;;
41059;SDS011;26811;53.160;8.202;2023-04-03T22:39:38;6.20;;;3.90;;
41059;SDS011;26811;53.160;8.202;2023-04-03T22:44:39;7.63;;;3.85;;
41059;SDS011;26811;53.160;8.202;2023-04-03T22:49:39;4.72;;;4.03;;
41059;SDS011;26811;53.160;8.202;2023-04-03T22:54:40;5.70;;;3.70;;
41059;SDS011;26811;53.160;8.202;2023-04-03T22:59:42;5.35;;;3.45;;
41059;SDS011;26811;53.160;8.202;2023-04-03T23:04:42;6.55;;;3.55;;
41059;SDS011;26811;53.160;8.202;2023-04-03T23:09:43;5.15;;;3.35;;
41059;SDS011;26811;53.160;8.202;2023-04-03T23:14:43;4.75;;;3.40;;
41059;SDS011;26811;53.160;8.202;2023-04-03T23:19:44;4.95;;;3.30;;
41059;SDS011;26811;53.160;8.202;2023-04-03T23:24:44;5.60;;;3.60;;
41059;SDS011;26811;53.160;8.202;2023-04-03T23:29:45;3.85;;;3.40;;
41059;SDS011;26811;53.160;8.202;2023-04-03T23:34:46;7.00;;;3.05;;
41059;SDS011;26811;53.160;8.202;2023-04-03T23:39:46;4.95;;;3.10;;
41059;SDS011;26811;53.160;8.202;2023-04-03T23:44:47;6.50;;;3.40;;
41059;SDS011;26811;53.160;8.202;2023-04-03T23:49:47;4.60;;;2.97;;
41059;SDS011;26811;53.160;8.202;2023-04-03T23:54:48;11.98;;;3.60;;
41059;SDS011;26811;53.160;8.202;2023-04-03T23:59:49;7.68;;;3.30;;
